createdAt,value
2022-11-27T03:42:30.639Z,0.50
2022-11-27T03:45:22.213Z,-0.60
2022-11-27T03:48:05.179Z,-0.80
2022-11-27T03:50:59.558Z,-0.90
2022-11-27T03:53:44.578Z,-0.90
2022-11-27T03:56:40.180Z,-0.80
2022-11-27T03:59:29.747Z,-0.80
2022-11-27T04:01:56.896Z,-0.80
2022-11-27T04:04:24.252Z,-0.70
2022-11-27T04:06:51.314Z,-0.60
2022-11-27T04:09:18.354Z,-0.40
2022-11-27T04:11:45.416Z,-0.30
2022-11-27T04:14:12.435Z,-0.30
2022-11-27T04:16:39.507Z,-0.30
2022-11-27T04:19:06.589Z,-0.30
2022-11-27T04:24:01.091Z,-0.30
2022-11-27T04:26:28.167Z,-0.60
2022-11-27T04:28:55.315Z,-0.60
2022-11-27T04:31:22.378Z,-0.50
2022-11-27T07:33:59.375Z,-0.50
2022-11-27T07:36:30.235Z,-1.10
2022-11-27T07:38:58.248Z,-1.10
2022-11-27T09:15:38.378Z,-1.10
2022-11-27T09:18:05.469Z,6.50
2022-11-27T09:20:32.406Z,6.70
2022-11-27T09:23:02.383Z,7.10
2022-11-27T09:25:29.561Z,7.40
2022-11-27T09:27:56.497Z,7.70
2022-11-27T09:30:23.623Z,8.10
2022-11-27T09:32:50.592Z,8.50
2022-11-27T09:35:17.776Z,8.90
2022-11-27T09:37:44.760Z,9.30
2022-11-27T09:40:16.904Z,9.50
2022-11-27T09:43:05.384Z,9.70
2022-11-27T09:45:33.705Z,10.00
2022-11-27T09:48:05.683Z,10.20
2022-11-27T09:50:40.300Z,10.60
2022-11-27T09:53:39.785Z,10.90
2022-11-27T09:56:13.582Z,11.40
2022-11-27T11:13:48.297Z,11.10
2022-11-27T11:24:24.440Z,11.20
2022-11-27T11:26:59.097Z,11.10
2022-11-27T11:29:52.696Z,10.90
2022-11-27T11:32:35.443Z,10.90
2022-11-27T11:35:11.223Z,11.00
2022-11-27T11:37:46.333Z,10.90
2022-11-27T11:40:16.054Z,11.20
2022-11-27T11:42:58.994Z,11.10
2022-11-27T11:45:32.313Z,11.10
2022-11-27T11:48:22.792Z,11.30
2022-11-27T11:51:01.970Z,11.40
2022-11-27T11:53:40.100Z,11.30
2022-11-27T11:56:34.032Z,11.40
2022-11-27T11:59:04.298Z,11.40
2022-11-27T12:02:18.321Z,11.50
2022-11-27T12:05:11.694Z,11.60
2022-11-27T12:08:07.191Z,11.80
2022-11-27T12:11:11.757Z,12.00
2022-11-27T12:13:59.876Z,11.90
2022-11-27T12:16:39.685Z,11.70
2022-11-27T12:19:09.775Z,11.40
2022-11-27T12:21:45.804Z,11.50
2022-11-27T12:24:27.448Z,11.60
2022-11-27T12:27:06.261Z,12.10
2022-11-27T12:30:11.444Z,12.30
2022-11-27T12:32:58.828Z,12.60
2022-11-27T12:35:44.992Z,11.90
2022-11-27T12:38:43.065Z,11.70
2022-11-27T12:41:31.937Z,11.80
2022-11-27T12:44:02.001Z,11.50
2022-11-27T12:46:37.523Z,11.70
2022-11-27T12:49:19.940Z,11.80
2022-11-27T12:52:09.815Z,11.90
2022-11-27T12:54:55.308Z,12.00
2022-11-27T12:58:03.420Z,12.10
2022-11-27T13:00:32.319Z,12.10
2022-11-27T13:03:25.802Z,11.60
2022-11-27T13:06:00.281Z,11.90
2022-11-27T13:08:53.709Z,11.90
2022-11-27T13:11:28.380Z,12.10
2022-11-27T13:14:10.110Z,12.30
2022-11-27T13:16:45.190Z,12.20
2022-11-27T13:19:51.115Z,11.70
2022-11-27T13:22:34.644Z,11.70
2022-11-27T13:25:03.459Z,12.10
2022-11-27T13:27:34.408Z,12.50
2022-11-27T13:30:06.533Z,12.10
2022-11-27T13:32:57.146Z,11.50
2022-11-27T13:35:41.949Z,11.40
2022-11-27T13:38:08.892Z,11.10
2022-11-27T13:40:49.173Z,10.80
2022-11-27T13:43:28.798Z,10.90
2022-11-27T13:46:31.473Z,10.70
2022-11-27T13:49:05.637Z,10.80
2022-11-27T13:51:38.890Z,10.80
2022-11-27T13:54:14.377Z,10.60
2022-11-27T13:56:41.836Z,10.50
2022-11-27T13:59:17.068Z,10.50
2022-11-27T14:02:03.304Z,10.30
2022-11-27T14:04:32.337Z,10.20
2022-11-27T14:07:13.699Z,10.10
2022-11-27T14:10:23.779Z,9.90
2022-11-27T14:13:07.810Z,9.70
2022-11-27T14:15:37.575Z,9.60
2022-11-27T14:18:18.648Z,9.50
2022-11-27T14:21:01.441Z,9.50
2022-11-27T14:23:49.692Z,9.40
2022-11-27T14:26:16.509Z,9.50
2022-11-27T14:28:48.762Z,9.40
2022-11-27T14:31:35.839Z,9.40
2022-11-27T14:34:20.841Z,9.30
2022-11-27T14:39:30.503Z,8.90
2022-11-27T14:42:17.454Z,8.90
2022-11-27T14:44:44.359Z,8.80
2022-11-27T14:47:20.080Z,8.70
2022-11-27T14:49:47.058Z,8.70
2022-11-27T14:52:17.689Z,8.70
2022-11-27T14:54:45.066Z,8.60
2022-11-27T14:57:23.439Z,8.60
2022-11-27T15:00:10.704Z,8.50
2022-11-27T15:02:37.778Z,8.50
2022-11-27T15:05:06.416Z,8.40
2022-11-27T15:07:45.252Z,8.30
2022-11-27T15:10:37.544Z,8.30
2022-11-27T15:13:07.956Z,8.20
2022-11-27T15:15:44.583Z,8.10
2022-11-27T15:18:24.768Z,8.10
2022-11-27T15:20:52.749Z,8.10
2022-11-27T15:23:32.126Z,8.10
2022-11-27T15:28:52.915Z,7.80
2022-11-27T15:34:22.197Z,8.00
2022-11-27T15:36:58.424Z,7.90
2022-11-27T15:39:51.851Z,7.90
2022-11-27T15:42:19.945Z,7.80
2022-11-27T15:44:49.062Z,7.80
2022-11-27T15:47:33.892Z,7.80
2022-11-27T15:50:01.322Z,7.70
2022-11-27T15:52:28.820Z,7.80
2022-11-27T15:54:56.561Z,7.70
2022-11-27T15:57:24.359Z,7.70
2022-11-27T15:59:51.303Z,7.60
2022-11-27T16:02:18.653Z,7.60
2022-11-27T16:04:45.647Z,7.60
2022-11-27T16:07:12.771Z,7.60
2022-11-27T16:09:40.065Z,7.60
2022-11-27T16:12:07.236Z,7.60
2022-11-27T16:14:34.279Z,7.70
2022-11-27T16:17:01.388Z,7.70
2022-11-27T16:19:29.980Z,7.80
2022-11-27T16:21:56.962Z,7.70
2022-11-27T16:24:23.957Z,7.60
2022-11-27T16:26:50.939Z,7.70
2022-11-27T16:31:45.405Z,7.60
2022-11-27T16:34:15.511Z,7.70
2022-11-27T16:36:45.676Z,7.60
2022-11-27T16:39:17.405Z,7.60
2022-11-27T16:41:44.635Z,7.60
2022-11-27T16:44:14.530Z,7.40
2022-11-27T16:49:12.344Z,7.20
2022-11-27T16:51:41.270Z,7.10
2022-11-27T16:54:13.306Z,6.90
2022-11-27T16:56:42.523Z,6.80
2022-11-27T16:59:12.369Z,6.70
2022-11-27T17:01:41.586Z,6.60
2022-11-27T17:04:15.356Z,6.60
2022-11-27T17:06:42.265Z,6.50
2022-11-27T17:09:09.350Z,6.50
2022-11-27T17:11:39.522Z,6.50
2022-11-27T17:14:08.131Z,6.30
2022-11-27T17:16:36.904Z,6.40
2022-11-27T17:19:04.486Z,6.20
2022-11-27T17:21:34.961Z,6.20
2022-11-27T17:24:11.552Z,6.10
2022-11-27T17:29:14.018Z,6.00
2022-11-27T17:31:41.446Z,6.20
2022-11-27T17:34:11.090Z,6.20
2022-11-27T17:36:38.903Z,6.20
2022-11-27T17:41:34.726Z,6.20
2022-11-27T17:44:05.382Z,6.10
2022-11-27T17:46:34.326Z,6.10
2022-11-27T17:49:04.948Z,6.10
2022-11-27T17:51:34.586Z,6.10
2022-11-27T17:54:03.140Z,6.10
2022-11-27T17:56:32.816Z,6.00
2022-11-27T17:58:59.953Z,5.90
2022-11-27T18:01:29.574Z,5.80
2022-11-27T18:04:03.575Z,5.90
2022-11-27T18:06:32.340Z,6.00
2022-11-27T18:09:00.034Z,6.20
2022-11-27T18:11:31.429Z,6.00
2022-11-27T18:14:00.233Z,6.00
2022-11-27T18:16:35.693Z,6.10
2022-11-27T18:19:06.448Z,6.20
2022-11-27T18:21:33.941Z,6.20
2022-11-27T18:29:39.326Z,6.60
2022-11-27T18:32:07.132Z,6.50
2022-11-27T18:34:34.539Z,6.50
2022-11-27T18:37:01.737Z,6.50
2022-11-27T18:39:28.823Z,6.40
2022-11-27T18:41:55.748Z,6.40
2022-11-27T18:44:22.981Z,6.30
2022-11-27T18:46:50.613Z,6.20
2022-11-27T18:49:18.257Z,6.10
2022-11-27T18:51:46.735Z,6.10
2022-11-27T18:54:13.708Z,6.00
2022-11-27T18:56:40.643Z,6.00
2022-11-27T18:59:09.162Z,5.80
2022-11-27T19:01:42.237Z,5.80
2022-11-27T19:04:11.148Z,5.90
2022-11-27T19:06:39.797Z,5.90
2022-11-27T19:09:07.253Z,6.00
2022-11-27T19:11:35.304Z,6.10
2022-11-27T19:14:04.042Z,6.20
2022-11-27T19:16:43.907Z,6.30
2022-11-27T19:19:52.174Z,6.30
2022-11-27T19:22:01.678Z,6.20
2022-11-27T19:24:28.801Z,6.20
2022-11-27T19:26:57.720Z,6.10
2022-11-27T19:29:24.757Z,6.30
2022-11-27T19:31:52.192Z,6.30
2022-11-27T19:34:20.712Z,6.20
2022-11-27T19:36:47.812Z,6.20
2022-11-27T19:39:15.911Z,6.10
2022-11-27T19:41:43.930Z,6.00
2022-11-27T19:44:12.863Z,6.00
2022-11-27T19:46:41.012Z,6.10
2022-11-27T19:49:13.657Z,6.10
2022-11-27T19:51:41.277Z,6.00
2022-11-27T19:54:12.560Z,6.00
2022-11-27T19:56:42.182Z,5.90
2022-11-27T19:59:12.315Z,6.00
2022-11-27T20:01:41.828Z,6.10
2022-11-27T20:04:11.780Z,6.10
2022-11-27T20:06:39.742Z,6.00
2022-11-27T20:09:08.630Z,6.00
2022-11-27T20:11:36.523Z,5.90
2022-11-27T20:14:06.352Z,5.80
2022-11-27T20:16:35.702Z,5.70
2022-11-27T20:19:05.754Z,5.70
2022-11-27T20:21:36.533Z,5.70
2022-11-27T20:24:04.060Z,5.70
2022-11-27T20:26:31.524Z,5.80
2022-11-27T20:28:59.863Z,5.90
2022-11-27T20:31:31.784Z,6.00
2022-11-27T20:34:02.448Z,6.00
2022-11-27T20:36:34.331Z,6.10
2022-11-27T20:39:02.072Z,6.20
2022-11-27T20:41:30.049Z,6.20
2022-11-27T20:44:01.087Z,6.20
2022-11-27T20:46:29.490Z,6.30
2022-11-27T20:48:57.259Z,6.30
2022-11-27T20:51:28.501Z,6.20
2022-11-27T20:53:58.604Z,6.20
2022-11-27T20:56:26.268Z,6.20
2022-11-27T20:58:53.366Z,6.00
2022-11-27T21:01:29.834Z,6.00
2022-11-27T21:04:00.166Z,6.10
2022-11-27T21:06:31.599Z,6.10
2022-11-27T21:09:04.402Z,6.00
2022-11-27T21:11:32.950Z,6.10
2022-11-27T21:14:06.260Z,6.10
2022-11-27T21:16:38.294Z,6.20
2022-11-27T21:19:14.968Z,6.20
2022-11-27T21:21:42.088Z,5.90
2022-11-27T21:24:09.832Z,5.80
2022-11-27T21:26:36.898Z,5.60
2022-11-27T21:29:04.466Z,5.50
2022-11-27T21:31:37.329Z,5.50
2022-11-27T21:34:07.499Z,5.40
2022-11-27T21:36:37.235Z,5.30
2022-11-27T21:39:08.244Z,5.30
2022-11-27T21:44:05.752Z,5.40
2022-11-27T21:46:33.625Z,5.20
2022-11-27T21:49:04.037Z,5.30
2022-11-27T21:51:31.138Z,5.50
2022-11-27T21:53:59.275Z,5.60
2022-11-27T21:56:29.016Z,5.60
2022-11-27T21:58:56.554Z,5.50
2022-11-27T22:01:25.710Z,5.60
2022-11-27T22:03:56.625Z,5.70
2022-11-27T22:06:27.569Z,5.80
2022-11-27T22:08:58.045Z,5.80
2022-11-27T22:11:28.742Z,5.80
2022-11-27T22:14:05.853Z,5.90
2022-11-27T22:16:42.793Z,5.90
2022-11-27T22:19:11.966Z,6.10
2022-11-27T22:21:38.942Z,6.00
2022-11-27T22:24:06.376Z,5.90
2022-11-27T22:26:33.831Z,5.70
2022-11-27T22:29:00.822Z,5.60
2022-11-27T22:31:31.247Z,5.40
2022-11-27T22:33:59.134Z,5.20
2022-11-27T22:36:34.873Z,5.20
2022-11-27T22:39:06.028Z,5.10
2022-11-27T22:41:37.047Z,5.00
2022-11-27T22:44:09.446Z,5.20
2022-11-27T22:46:40.125Z,5.30
2022-11-27T22:49:09.547Z,5.40
2022-11-27T22:51:37.282Z,5.50
2022-11-27T22:54:06.948Z,5.50
2022-11-27T22:56:34.014Z,5.60
2022-11-27T22:59:30.459Z,5.60
2022-11-27T23:01:49.584Z,5.70
2022-11-27T23:06:47.908Z,5.90
2022-11-27T23:09:17.789Z,5.80
2022-11-27T23:11:45.341Z,5.60
2022-11-27T23:14:12.260Z,5.60
2022-11-27T23:16:39.507Z,5.50
2022-11-27T23:19:06.955Z,5.40
2022-11-27T23:21:37.472Z,5.40
2022-11-27T23:24:06.785Z,5.50
2022-11-27T23:26:33.839Z,5.60
2022-11-27T23:29:00.776Z,5.70
2022-11-27T23:31:32.572Z,5.80
2022-11-27T23:34:02.107Z,5.90
2022-11-27T23:36:31.338Z,5.90
2022-11-27T23:39:03.536Z,5.80
2022-11-27T23:41:31.535Z,5.60
2022-11-27T23:43:58.935Z,5.50
2022-11-27T23:46:27.933Z,5.50
2022-11-27T23:48:57.085Z,5.60
2022-11-27T23:51:27.788Z,5.60
2022-11-27T23:53:55.112Z,5.70
2022-11-27T23:56:25.304Z,5.80
2022-11-27T23:58:54.985Z,5.80
